createdAt,value
2023-10-27T00:00:44.931Z,3.80
2023-10-27T00:03:12.400Z,4.30
2023-10-27T00:05:39.830Z,4.20
2023-10-27T00:08:07.270Z,4.20
2023-10-27T00:10:36.259Z,4.30
2023-10-27T00:13:03.762Z,4.30
2023-10-27T00:15:31.212Z,3.87
2023-10-27T00:17:59.345Z,5.00
2023-10-27T00:20:26.848Z,4.10
2023-10-27T00:22:54.397Z,4.33
2023-10-27T00:25:21.931Z,3.80
2023-10-27T00:27:49.442Z,4.20
2023-10-27T00:30:18.126Z,4.13
2023-10-27T00:32:45.644Z,3.97
2023-10-27T00:35:13.234Z,3.67
2023-10-27T00:37:41.647Z,3.33
2023-10-27T00:40:09.386Z,3.73
2023-10-27T00:42:36.833Z,3.23
2023-10-27T00:45:04.852Z,3.70
2023-10-27T00:47:32.393Z,3.70
2023-10-27T00:50:00.394Z,3.23
2023-10-27T00:52:29.117Z,3.70
2023-10-27T00:54:56.703Z,3.43
2023-10-27T00:57:24.381Z,3.70
2023-10-27T00:59:51.971Z,3.33
2023-10-27T01:02:19.849Z,3.20
2023-10-27T01:04:47.572Z,3.63
2023-10-27T01:07:15.099Z,3.33
2023-10-27T01:09:42.773Z,3.17
2023-10-27T01:12:10.345Z,3.40
2023-10-27T01:14:38.647Z,4.20
2023-10-27T01:17:06.131Z,3.60
2023-10-27T01:19:33.969Z,3.00
2023-10-27T01:22:01.493Z,4.00
2023-10-27T01:24:28.985Z,3.73
2023-10-27T01:27:00.716Z,3.50
2023-10-27T01:29:29.597Z,3.17
2023-10-27T01:31:57.013Z,3.20
2023-10-27T01:34:24.569Z,3.37
2023-10-27T01:36:51.982Z,3.27
2023-10-27T01:39:19.970Z,3.00
2023-10-27T01:41:47.468Z,3.97
2023-10-27T01:44:14.985Z,3.93
2023-10-27T01:46:42.432Z,3.90
2023-10-27T01:49:09.989Z,4.00
2023-10-27T01:51:37.541Z,3.40
2023-10-27T01:54:05.068Z,4.27
2023-10-27T01:56:34.267Z,3.37
2023-10-27T01:59:01.742Z,3.70
2023-10-27T02:01:29.378Z,4.30
2023-10-27T02:03:57.088Z,4.13
2023-10-27T02:06:25.872Z,4.83
2023-10-27T02:08:54.070Z,5.00
2023-10-27T02:11:24.259Z,4.97
2023-10-27T02:13:51.730Z,5.10
2023-10-27T02:16:19.232Z,6.10
2023-10-27T02:18:46.722Z,5.67
2023-10-27T02:21:14.153Z,5.47
2023-10-27T02:23:41.606Z,5.80
2023-10-27T02:26:09.114Z,7.03
2023-10-27T02:28:38.145Z,5.50
2023-10-27T02:31:05.647Z,5.83
2023-10-27T02:33:33.118Z,4.80
2023-10-27T02:36:00.535Z,4.50
2023-10-27T02:38:27.988Z,4.80
2023-10-27T02:40:55.434Z,4.90
2023-10-27T02:43:22.904Z,4.30
2023-10-27T02:45:51.923Z,4.03
2023-10-27T02:48:19.449Z,3.70
2023-10-27T02:50:47.017Z,3.60
2023-10-27T02:53:14.475Z,3.90
2023-10-27T02:55:41.906Z,4.10
2023-10-27T02:58:09.366Z,4.50
2023-10-27T03:00:38.433Z,4.10
2023-10-27T03:03:05.902Z,4.03
2023-10-27T03:05:33.371Z,3.77
2023-10-27T03:08:00.807Z,4.33
2023-10-27T03:10:28.340Z,3.93
2023-10-27T03:12:55.945Z,3.93
2023-10-27T03:15:23.420Z,3.70
2023-10-27T03:17:51.587Z,3.60
2023-10-27T03:20:19.032Z,3.87
2023-10-27T03:22:46.465Z,3.40
2023-10-27T03:25:13.941Z,3.30
2023-10-27T03:27:41.357Z,4.33
2023-10-27T03:30:09.440Z,3.30
2023-10-27T03:32:36.911Z,3.77
2023-10-27T03:35:04.434Z,3.50
2023-10-27T03:37:31.884Z,3.40
2023-10-27T03:40:00.020Z,3.50
2023-10-27T03:42:27.589Z,3.33
2023-10-27T03:44:55.026Z,3.20
2023-10-27T03:47:22.484Z,3.73
2023-10-27T03:49:49.906Z,2.60
2023-10-27T03:52:17.719Z,3.60
2023-10-27T03:54:45.378Z,3.97
2023-10-27T03:57:12.836Z,3.17
2023-10-27T03:59:40.298Z,3.07
2023-10-27T04:02:07.751Z,3.93
2023-10-27T04:04:35.279Z,4.07
2023-10-27T04:07:03.620Z,3.30
2023-10-27T04:09:31.177Z,3.63
2023-10-27T04:11:58.605Z,5.43
2023-10-27T04:14:26.042Z,4.10
2023-10-27T04:16:53.495Z,5.23
2023-10-27T04:19:21.349Z,6.03
2023-10-27T04:21:48.817Z,5.63
2023-10-27T04:24:18.126Z,6.23
2023-10-27T04:26:45.622Z,6.50
2023-10-27T04:29:13.236Z,5.97
2023-10-27T04:31:40.692Z,6.80
2023-10-27T04:34:08.203Z,7.00
2023-10-27T04:36:35.600Z,6.77
2023-10-27T04:39:04.744Z,6.90
2023-10-27T04:41:32.837Z,6.80
2023-10-27T04:44:00.445Z,6.47
2023-10-27T04:46:28.004Z,7.00
2023-10-27T04:48:58.426Z,6.87
2023-10-27T04:51:27.877Z,8.00
2023-10-27T04:53:55.794Z,7.00
2023-10-27T04:56:23.633Z,8.23
2023-10-27T04:58:52.749Z,8.60
2023-10-27T05:01:24.314Z,8.37
2023-10-27T05:03:53.412Z,8.40
2023-10-27T05:06:20.872Z,9.00
2023-10-27T05:08:48.545Z,9.50
2023-10-27T05:11:15.935Z,9.33
2023-10-27T05:13:43.369Z,8.63
2023-10-27T05:16:10.891Z,9.97
2023-10-27T05:18:38.420Z,8.70
2023-10-27T05:21:05.802Z,7.47
2023-10-27T05:23:33.313Z,7.90
2023-10-27T05:26:00.814Z,8.13
2023-10-27T05:28:28.296Z,7.80
2023-10-27T05:30:56.448Z,7.23
2023-10-27T05:33:23.973Z,6.80
2023-10-27T05:35:51.589Z,6.50
2023-10-27T05:38:19.145Z,5.60
2023-10-27T05:40:47.218Z,5.83
2023-10-27T05:43:17.228Z,5.10
2023-10-27T05:45:44.914Z,7.60
2023-10-27T05:48:12.737Z,6.57
2023-10-27T05:50:40.398Z,7.37
2023-10-27T05:53:07.910Z,7.00
2023-10-27T05:55:35.350Z,7.30
2023-10-27T05:58:02.802Z,8.60
2023-10-27T06:00:30.192Z,7.70
2023-10-27T06:02:57.765Z,8.50
2023-10-27T06:05:25.884Z,7.87
2023-10-27T06:07:53.294Z,8.63
2023-10-27T06:10:20.735Z,8.07
2023-10-27T06:12:48.188Z,4.90
2023-10-27T06:15:15.611Z,5.27
2023-10-27T06:17:44.092Z,6.30
2023-10-27T06:20:17.749Z,5.93
2023-10-27T06:22:40.666Z,4.83
2023-10-27T06:25:08.207Z,4.00
2023-10-27T06:27:38.553Z,4.70
2023-10-27T06:30:06.825Z,5.90
2023-10-27T06:32:34.223Z,7.57
2023-10-27T06:35:01.605Z,9.50
2023-10-27T06:37:29.112Z,8.70
2023-10-27T06:39:58.138Z,7.83
2023-10-27T06:42:26.254Z,16.70
2023-10-27T06:44:53.708Z,11.80
2023-10-27T06:47:23.365Z,9.80
2023-10-27T06:49:50.291Z,7.77
2023-10-27T06:52:17.772Z,6.60
2023-10-27T06:54:45.321Z,6.90
2023-10-27T06:57:12.878Z,7.60
2023-10-27T06:59:40.346Z,7.90
2023-10-27T07:02:07.781Z,6.37
2023-10-27T07:04:35.331Z,6.10
2023-10-27T07:07:07.124Z,7.33
2023-10-27T07:09:34.025Z,7.57
2023-10-27T07:12:01.457Z,6.73
2023-10-27T07:14:28.881Z,6.53
2023-10-27T07:16:57.688Z,7.33
2023-10-27T07:19:26.159Z,7.30
2023-10-27T07:21:53.635Z,6.43
2023-10-27T07:24:21.714Z,6.23
2023-10-27T07:26:49.414Z,5.00
2023-10-27T07:29:16.849Z,6.40
2023-10-27T07:31:44.400Z,5.47
2023-10-27T07:34:11.861Z,4.47
2023-10-27T07:36:39.332Z,4.00
2023-10-27T07:39:06.806Z,4.30
2023-10-27T07:41:35.862Z,3.17
2023-10-27T07:44:05.151Z,4.10
2023-10-27T07:46:32.982Z,3.43
2023-10-27T07:49:00.397Z,2.10
2023-10-27T07:51:27.825Z,2.60
2023-10-27T07:53:55.186Z,2.40
2023-10-27T07:56:22.612Z,2.10
2023-10-27T07:58:50.623Z,2.50
2023-10-27T08:01:18.001Z,2.60
2023-10-27T08:03:47.150Z,2.00
2023-10-27T08:06:14.684Z,2.10
2023-10-27T08:08:42.129Z,2.33
2023-10-27T08:11:11.074Z,2.20
2023-10-27T08:13:38.651Z,2.07
2023-10-27T08:16:06.700Z,2.07
2023-10-27T08:18:34.411Z,2.07
2023-10-27T08:21:01.803Z,2.03
2023-10-27T08:23:29.267Z,2.33
2023-10-27T08:25:56.851Z,2.63
2023-10-27T08:28:25.003Z,2.20
2023-10-27T08:30:52.988Z,2.00
2023-10-27T08:33:20.535Z,1.70
2023-10-27T08:35:47.948Z,2.10
2023-10-27T08:38:15.401Z,1.90
2023-10-27T08:40:44.057Z,2.30
2023-10-27T08:43:13.234Z,2.10
2023-10-27T08:45:40.630Z,1.70
2023-10-27T08:48:08.930Z,1.67
2023-10-27T08:50:38.646Z,1.70
2023-10-27T08:53:06.126Z,1.40
2023-10-27T08:55:33.524Z,1.30
2023-10-27T08:58:01.273Z,1.10
2023-10-27T09:00:29.372Z,1.00
2023-10-27T09:02:56.822Z,1.10
2023-10-27T09:05:25.594Z,1.50
2023-10-27T09:07:53.431Z,1.10
2023-10-27T09:10:21.242Z,1.30
2023-10-27T09:12:48.748Z,1.10
2023-10-27T09:15:16.138Z,1.20
2023-10-27T09:18:01.183Z,0.90
2023-10-27T09:20:29.040Z,0.90
2023-10-27T09:23:01.046Z,0.90
2023-10-27T09:25:32.446Z,1.00
2023-10-27T09:28:00.607Z,0.97
2023-10-27T09:30:33.161Z,0.80
2023-10-27T09:33:14.177Z,0.90
2023-10-27T09:35:42.279Z,0.90
2023-10-27T09:38:10.101Z,0.80
2023-10-27T09:40:40.805Z,0.80
2023-10-27T09:43:12.443Z,1.00
2023-10-27T09:45:40.497Z,1.10
2023-10-27T09:48:08.378Z,1.00
2023-10-27T09:50:36.569Z,1.10
2023-10-27T09:53:04.115Z,0.93
2023-10-27T09:55:32.606Z,1.20
2023-10-27T09:58:01.087Z,1.03
2023-10-27T10:00:30.197Z,1.23
2023-10-27T10:02:58.989Z,1.20
2023-10-27T10:05:27.076Z,1.10
2023-10-27T10:07:56.134Z,1.10
2023-10-27T10:10:29.940Z,1.20
2023-10-27T10:13:04.699Z,0.90
2023-10-27T10:15:33.138Z,1.43
2023-10-27T10:18:01.809Z,2.33
2023-10-27T10:20:46.486Z,1.00
2023-10-27T10:23:13.856Z,1.40
2023-10-27T10:25:54.540Z,1.47
2023-10-27T10:28:23.531Z,1.47
2023-10-27T10:30:52.568Z,1.40
2023-10-27T10:33:23.149Z,1.47
2023-10-27T10:35:51.011Z,1.30
2023-10-27T10:38:25.843Z,1.37
2023-10-27T10:40:54.484Z,1.60
2023-10-27T10:43:26.248Z,1.60
2023-10-27T10:45:57.727Z,1.30
2023-10-27T10:48:26.376Z,1.27
2023-10-27T10:50:59.755Z,1.20
2023-10-27T10:53:27.238Z,1.40
2023-10-27T10:56:01.550Z,1.60
2023-10-27T10:58:30.404Z,1.40
2023-10-27T11:00:58.794Z,1.43
2023-10-27T11:03:28.695Z,1.53
2023-10-27T11:06:00.994Z,1.50
2023-10-27T11:08:29.776Z,2.03
2023-10-27T11:11:00.532Z,1.13
2023-10-27T11:13:28.684Z,1.93
2023-10-27T11:15:56.139Z,1.37
2023-10-27T11:18:23.806Z,1.10
2023-10-27T11:20:52.162Z,1.50
2023-10-27T11:23:19.568Z,1.50
2023-10-27T11:25:47.204Z,2.10
2023-10-27T11:28:25.009Z,1.57
2023-10-27T11:30:59.876Z,2.17
2023-10-27T11:33:27.366Z,1.70
2023-10-27T11:35:54.816Z,1.47
2023-10-27T11:38:24.002Z,1.30
2023-10-27T11:40:53.070Z,1.40
2023-10-27T11:43:20.897Z,1.87
2023-10-27T11:45:48.462Z,2.07
2023-10-27T11:48:15.944Z,1.53
2023-10-27T11:50:43.410Z,1.73
2023-10-27T11:53:10.858Z,1.93
2023-10-27T11:55:38.342Z,1.60
2023-10-27T11:58:05.736Z,1.60
2023-10-27T12:00:33.190Z,1.87
2023-10-27T12:03:01.580Z,1.40
2023-10-27T12:05:29.020Z,1.40
2023-10-27T12:07:56.413Z,1.90
2023-10-27T12:10:23.877Z,1.70
2023-10-27T12:12:51.284Z,1.97
2023-10-27T12:17:54.233Z,2.03
2023-10-27T12:20:21.666Z,1.93
2023-10-27T12:22:49.104Z,3.20
2023-10-27T12:25:16.550Z,1.87
2023-10-27T12:27:43.931Z,1.90
2023-10-27T12:30:11.583Z,1.70
2023-10-27T12:32:39.125Z,1.80
2023-10-27T12:35:07.517Z,1.80
2023-10-27T12:37:34.956Z,1.57
2023-10-27T12:40:04.054Z,1.80
2023-10-27T12:42:31.390Z,2.13
2023-10-27T12:44:59.010Z,1.80
2023-10-27T12:47:27.041Z,1.80
2023-10-27T12:49:54.531Z,1.70
2023-10-27T12:52:22.010Z,1.93
2023-10-27T12:54:50.530Z,1.50
2023-10-27T12:57:17.881Z,2.13
2023-10-27T12:59:47.178Z,1.73
2023-10-27T13:02:14.594Z,1.70
2023-10-27T13:04:42.135Z,1.80
2023-10-27T13:07:09.623Z,1.63
2023-10-27T13:09:38.905Z,1.70
2023-10-27T13:12:07.991Z,1.53
2023-10-27T13:14:36.433Z,1.90
2023-10-27T13:17:03.858Z,1.70
2023-10-27T13:19:31.295Z,1.40
2023-10-27T13:21:58.749Z,2.07
2023-10-27T13:24:26.190Z,1.80
2023-10-27T13:26:57.154Z,1.57
2023-10-27T13:29:24.620Z,2.30
2023-10-27T13:31:52.222Z,1.37
2023-10-27T13:34:20.530Z,1.53
2023-10-27T13:36:48.006Z,1.47
2023-10-27T13:39:17.287Z,1.43
2023-10-27T13:41:45.123Z,1.73
2023-10-27T13:44:12.585Z,1.80
2023-10-27T13:46:39.970Z,1.40
2023-10-27T13:49:09.059Z,1.43
2023-10-27T13:51:36.975Z,1.93
2023-10-27T13:54:04.456Z,1.83
2023-10-27T13:56:32.438Z,2.07
2023-10-27T13:59:00.934Z,1.83
2023-10-27T14:01:29.559Z,1.50
2023-10-27T14:03:57.100Z,1.60
2023-10-27T14:06:25.627Z,1.30
2023-10-27T14:08:53.305Z,1.60
2023-10-27T14:11:20.725Z,1.33
2023-10-27T14:13:48.357Z,1.50
2023-10-27T14:16:18.247Z,1.60
2023-10-27T14:18:45.711Z,1.30
2023-10-27T14:21:13.071Z,1.93
2023-10-27T14:23:40.457Z,1.40
2023-10-27T14:26:09.361Z,1.90
2023-10-27T14:28:36.793Z,1.63
2023-10-27T14:31:08.953Z,1.57
2023-10-27T14:33:36.422Z,1.40
2023-10-27T14:36:08.126Z,1.50
2023-10-27T14:38:37.100Z,1.83
2023-10-27T14:41:04.686Z,1.83
2023-10-27T14:43:32.330Z,1.90
2023-10-27T14:46:03.451Z,2.87
2023-10-27T14:48:31.832Z,1.40
2023-10-27T14:51:03.865Z,1.70
2023-10-27T14:53:31.269Z,1.60
2023-10-27T14:55:59.424Z,2.77
2023-10-27T14:58:26.879Z,1.77
2023-10-27T15:00:54.323Z,1.60
2023-10-27T15:03:21.904Z,1.90
2023-10-27T15:05:49.296Z,1.80
2023-10-27T15:08:16.737Z,1.97
2023-10-27T15:10:44.381Z,1.50
2023-10-27T15:13:11.992Z,1.70
2023-10-27T15:15:39.410Z,1.77
2023-10-27T15:18:06.863Z,1.90
2023-10-27T15:20:38.788Z,1.40
2023-10-27T15:23:08.052Z,1.40
2023-10-27T15:25:37.265Z,1.40
2023-10-27T15:28:04.722Z,1.60
2023-10-27T15:30:32.260Z,1.60
2023-10-27T15:32:59.714Z,1.50
2023-10-27T15:35:27.111Z,1.60
2023-10-27T15:37:54.574Z,1.60
2023-10-27T15:40:21.950Z,1.40
2023-10-27T15:42:49.472Z,1.50
2023-10-27T15:45:17.236Z,1.60
2023-10-27T15:47:46.441Z,1.90
2023-10-27T15:50:13.876Z,1.60
2023-10-27T15:52:41.330Z,1.77
2023-10-27T15:55:08.750Z,1.40
2023-10-27T15:57:36.261Z,1.40
2023-10-27T16:00:05.413Z,1.43
2023-10-27T16:02:32.769Z,1.50
2023-10-27T16:05:02.588Z,1.63
2023-10-27T16:07:29.283Z,2.03
2023-10-27T17:05:08.041Z,1.70
2023-10-27T17:07:35.538Z,2.07
2023-10-27T17:10:05.892Z,1.70
2023-10-27T17:12:33.384Z,1.63
2023-10-27T17:15:00.840Z,2.00
2023-10-27T17:17:28.308Z,4.87
2023-10-27T17:20:05.571Z,2.17
2023-10-27T17:22:25.760Z,2.03
2023-10-27T17:24:55.735Z,2.00
2023-10-27T17:27:23.323Z,3.07
2023-10-27T17:29:50.734Z,3.20
2023-10-27T17:32:18.206Z,1.93
2023-10-27T17:34:46.022Z,2.43
2023-10-27T17:37:13.515Z,1.83
2023-10-27T17:39:40.928Z,2.00
2023-10-27T17:42:09.367Z,3.07
2023-10-27T17:44:38.154Z,1.60
2023-10-27T17:47:06.746Z,4.63
2023-10-27T17:49:34.130Z,1.90
2023-10-27T17:52:02.865Z,3.57
2023-10-27T17:54:31.946Z,2.80
2023-10-27T17:56:59.380Z,1.87
2023-10-27T17:59:30.256Z,3.63
2023-10-27T18:10:03.981Z,2.50
2023-10-27T18:12:31.395Z,1.90
2023-10-27T18:14:58.863Z,15.20
2023-10-27T18:17:27.062Z,2.67
2023-10-27T18:19:54.639Z,2.03
2023-10-27T18:22:22.321Z,1.87
2023-10-27T18:24:50.069Z,2.57
2023-10-27T18:27:17.790Z,1.90
2023-10-27T18:29:45.354Z,1.90
2023-10-27T18:32:12.850Z,2.13
2023-10-27T18:34:40.357Z,2.60
2023-10-27T18:37:08.657Z,1.80
2023-10-27T18:39:36.110Z,5.10
2023-10-27T18:44:47.779Z,2.53
2023-10-27T18:47:15.508Z,2.10
2023-10-27T18:49:45.409Z,2.13
2023-10-27T18:52:14.081Z,2.00
2023-10-27T18:54:44.998Z,2.30
2023-10-27T18:57:13.685Z,2.10
2023-10-27T18:59:41.245Z,2.23
2023-10-27T19:02:08.817Z,2.17
2023-10-27T19:04:50.832Z,2.37
2023-10-27T19:07:07.956Z,1.73
2023-10-27T19:09:35.398Z,1.97
2023-10-27T19:12:05.608Z,1.63
2023-10-27T19:14:33.025Z,2.37
2023-10-27T19:17:00.563Z,2.37
2023-10-27T19:19:27.964Z,2.70
2023-10-27T19:21:56.017Z,2.83
2023-10-27T19:24:23.392Z,5.20
2023-10-27T19:26:50.859Z,5.40
2023-10-27T19:29:19.810Z,6.90
2023-10-27T19:31:48.111Z,2.60
2023-10-27T19:34:17.210Z,3.50
2023-10-27T19:36:44.640Z,14.10
2023-10-27T19:39:12.147Z,12.60
2023-10-27T19:41:40.348Z,53.70
2023-10-27T19:44:07.888Z,29.37
2023-10-27T19:46:35.335Z,56.50
2023-10-27T19:49:02.804Z,158.43
2023-10-27T19:51:30.278Z,61.90
2023-10-27T19:53:58.747Z,24.70
2023-10-27T19:56:26.176Z,10.90
2023-10-27T19:58:53.789Z,15.03
2023-10-27T20:01:24.822Z,16.53
2023-10-27T20:03:50.361Z,3.60
2023-10-27T20:06:18.075Z,2.67
2023-10-27T20:08:45.895Z,3.23
2023-10-27T20:11:14.502Z,2.97
2023-10-27T20:13:44.505Z,2.93
2023-10-27T20:16:12.985Z,2.70
2023-10-27T20:18:40.765Z,2.37
2023-10-27T20:21:09.883Z,2.80
2023-10-27T20:23:38.877Z,2.60
2023-10-27T20:26:09.226Z,2.60
2023-10-27T20:28:36.651Z,2.43
2023-10-27T20:31:05.961Z,2.57
2023-10-27T20:33:33.927Z,3.20
2023-10-27T20:36:01.981Z,1.90
2023-10-27T20:38:29.378Z,2.60
2023-10-27T20:40:57.791Z,2.40
2023-10-27T20:43:25.495Z,2.73
2023-10-27T20:45:52.931Z,2.20
2023-10-27T20:48:20.355Z,2.40
2023-10-27T20:50:47.775Z,2.53
2023-10-27T20:53:15.252Z,2.10
2023-10-27T20:55:42.644Z,2.50
2023-10-27T20:58:10.121Z,2.67
2023-10-27T21:00:37.563Z,2.60
2023-10-27T21:03:05.162Z,2.10
2023-10-27T21:05:33.267Z,3.27
2023-10-27T21:08:02.158Z,2.90
2023-10-27T21:10:30.371Z,2.93
2023-10-27T21:12:57.755Z,2.33
2023-10-27T21:15:25.138Z,2.30
2023-10-27T21:17:52.557Z,2.57
2023-10-27T21:20:19.994Z,2.70
2023-10-27T21:22:47.447Z,2.70
2023-10-27T21:25:14.931Z,2.30
2023-10-27T21:27:42.644Z,2.57
2023-10-27T21:30:10.308Z,2.83
2023-10-27T21:32:38.404Z,2.30
2023-10-27T21:35:07.498Z,2.53
2023-10-27T21:37:34.911Z,3.37
2023-10-27T21:40:03.609Z,2.70
2023-10-27T21:42:31.115Z,2.80
2023-10-27T21:44:58.566Z,3.43
2023-10-27T21:47:26.066Z,2.70
2023-10-27T21:49:53.517Z,3.57
2023-10-27T21:52:20.929Z,2.80
2023-10-27T21:54:48.418Z,3.20
2023-10-27T21:57:16.443Z,3.40
2023-10-27T21:59:44.073Z,4.20
2023-10-27T22:02:11.873Z,3.50
2023-10-27T22:04:39.482Z,4.30
2023-10-27T22:07:07.908Z,4.60
2023-10-27T22:09:36.504Z,4.67
2023-10-27T22:12:05.281Z,3.83
2023-10-27T22:14:34.090Z,4.10
2023-10-27T22:17:03.765Z,4.37
2023-10-27T22:19:30.650Z,4.00
2023-10-27T22:21:58.592Z,5.73
2023-10-27T22:24:27.655Z,4.40
2023-10-27T22:26:56.344Z,4.50
2023-10-27T22:29:23.769Z,4.80
2023-10-27T22:31:51.340Z,4.00
2023-10-27T22:34:18.951Z,4.43
2023-10-27T22:36:46.659Z,4.20
2023-10-27T22:39:14.106Z,4.13
2023-10-27T22:41:42.176Z,4.67
2023-10-27T22:44:09.562Z,4.60
2023-10-27T22:46:37.049Z,4.47
2023-10-27T22:49:04.524Z,4.63
2023-10-27T22:51:32.007Z,4.27
2023-10-27T22:53:59.474Z,4.40
2023-10-27T22:56:26.906Z,4.30
2023-10-27T22:58:54.553Z,4.23
2023-10-27T23:01:22.175Z,5.20
2023-10-27T23:03:49.966Z,4.60
2023-10-27T23:06:17.439Z,4.70
2023-10-27T23:08:44.890Z,5.43
2023-10-27T23:11:12.897Z,5.00
2023-10-27T23:13:41.353Z,4.17
2023-10-27T23:16:09.752Z,4.03
2023-10-27T23:18:46.815Z,4.23
2023-10-27T23:21:14.545Z,4.13
2023-10-27T23:23:43.553Z,4.60
2023-10-27T23:26:11.373Z,4.30
2023-10-27T23:28:40.423Z,4.03
2023-10-27T23:31:12.856Z,4.40
2023-10-27T23:33:40.804Z,4.77
2023-10-27T23:36:10.233Z,4.80
2023-10-27T23:38:39.100Z,4.47
2023-10-27T23:41:06.908Z,4.50
2023-10-27T23:43:34.447Z,5.17
2023-10-27T23:46:02.866Z,5.10
2023-10-27T23:48:30.395Z,5.23
2023-10-27T23:50:58.892Z,6.20
2023-10-27T23:53:28.339Z,6.20
2023-10-27T23:55:55.982Z,6.10
2023-10-27T23:58:24.250Z,6.20
